Time;durP1;ratioP1;P1;durP2;ratioP2;P2;SDS_P1;SDS_P2;PMS_P1;PMS_P2;Temp;Humidity;BMP_temperature;BMP_pressure;BME280_temperature;BME280_humidity;BME280_pressure;Samples;Min_cycle;Max_cycle;Signal;HPM_P1;HPM_P2
2022/12/24 00:01:17;;;;;;;29.27;3.97;;;;;;;;;;5162262;27;20050;-71
2022/12/24 00:03:43;;;;;;;21.42;4.38;;;;;;;;;;5160466;27;20050;-70
2022/12/24 00:06:22;;;;;;;23.60;4.22;;;;;;;;;;5165920;27;20142;-71
2022/12/24 00:08:50;;;;;;;25.52;5.30;;;;;;;;;;5160626;27;20050;-70
2022/12/24 00:11:16;;;;;;;25.60;3.65;;;;;;;;;;5162859;27;20596;-71
2022/12/24 00:13:43;;;;;;;22.85;4.22;;;;;;;;;;5165872;27;20050;-71
2022/12/24 00:16:10;;;;;;;23.98;4.20;;;;;;;;;;5161436;27;20047;-71
2022/12/24 00:18:36;;;;;;;28.63;4.45;;;;;;;;;;5164620;27;20092;-71
2022/12/24 00:21:11;;;;;;;24.15;4.03;;;;;;;;;;5164415;27;20052;-71
2022/12/24 00:23:38;;;;;;;26.52;5.50;;;;;;;;;;5165214;27;20727;-73
2022/12/24 00:26:04;;;;;;;18.55;4.40;;;;;;;;;;5165208;27;20043;-72
2022/12/24 00:28:31;;;;;;;28.83;4.82;;;;;;;;;;5148398;27;20140;-72
2022/12/24 00:30:57;;;;;;;28.95;5.65;;;;;;;;;;5165423;27;20484;-73
2022/12/24 00:33:24;;;;;;;25.77;4.43;;;;;;;;;;5165716;27;20074;-72
2022/12/24 00:35:51;;;;;;;21.20;3.90;;;;;;;;;;5146687;27;20088;-71
2022/12/24 00:38:17;;;;;;;21.45;4.57;;;;;;;;;;5160395;27;20054;-71
2022/12/24 00:40:44;;;;;;;22.77;5.18;;;;;;;;;;5161840;27;20046;-70
2022/12/24 00:43:10;;;;;;;27.70;4.00;;;;;;;;;;5165455;27;20178;-72
2022/12/24 00:45:36;;;;;;;23.52;4.90;;;;;;;;;;5165754;27;20115;-72
2022/12/24 00:48:03;;;;;;;35.20;4.80;;;;;;;;;;5163660;27;20039;-72
2022/12/24 00:50:29;;;;;;;30.00;5.30;;;;;;;;;;5162659;27;20050;-72
2022/12/24 00:52:55;;;;;;;23.75;4.63;;;;;;;;;;5163978;27;20055;-71
2022/12/24 00:55:22;;;;;;;29.77;4.15;;;;;;;;;;5165391;27;20045;-71
2022/12/24 00:57:48;;;;;;;24.67;4.85;;;;;;;;;;5165298;27;20050;-70
2022/12/24 01:00:16;;;;;;;27.63;5.00;;;;;;;;;;5164472;27;20049;-70
2022/12/24 01:02:43;;;;;;;21.42;3.95;;;;;;;;;;5165749;27;20137;-71
2022/12/24 01:05:10;;;;;;;25.27;4.35;;;;;;;;;;5163855;27;20054;-71
2022/12/24 01:07:42;;;;;;;26.27;4.60;;;;;;;;;;5163503;27;20471;-70
2022/12/24 01:10:09;;;;;;;30.00;4.07;;;;;;;;;;5165445;27;20070;-70
2022/12/24 01:12:36;;;;;;;25.50;4.90;;;;;;;;;;5163899;27;21056;-71
2022/12/24 01:15:03;;;;;;;26.52;4.05;;;;;;;;;;5145230;27;20051;-70
2022/12/24 01:17:33;;;;;;;31.50;4.78;;;;;;;;;;5163370;27;20047;-70
2022/12/24 01:19:59;;;;;;;18.80;4.28;;;;;;;;;;5161771;27;20055;-71
2022/12/24 01:22:26;;;;;;;30.10;4.50;;;;;;;;;;5160267;27;20143;-71
2022/12/24 01:24:53;;;;;;;30.65;5.07;;;;;;;;;;5164652;27;20100;-71
2022/12/24 01:27:19;;;;;;;26.20;5.88;;;;;;;;;;5163411;27;20479;-71
2022/12/24 01:29:45;;;;;;;20.33;3.88;;;;;;;;;;5164898;27;20053;-71
2022/12/24 01:32:12;;;;;;;31.23;4.43;;;;;;;;;;5165068;27;20049;-70
2022/12/24 01:34:38;;;;;;;22.42;5.45;;;;;;;;;;5163872;27;20428;-71
2022/12/24 01:37:04;;;;;;;22.88;4.40;;;;;;;;;;5163350;27;20047;-71
2022/12/24 01:39:31;;;;;;;22.17;3.72;;;;;;;;;;5163684;27;20522;-71
2022/12/24 01:44:43;;;;;;;27.10;4.90;;;;;;;;;;5164387;27;20047;-71
2022/12/24 01:47:12;;;;;;;21.75;3.90;;;;;;;;;;5163211;27;20046;-70
2022/12/24 01:49:41;;;;;;;29.45;5.57;;;;;;;;;;5164830;27;20487;-71
2022/12/24 01:52:28;;;;;;;18.52;3.58;;;;;;;;;;5164756;27;20045;-71
2022/12/24 01:54:57;;;;;;;35.50;5.10;;;;;;;;;;5148695;27;20055;-70
2022/12/24 01:57:26;;;;;;;23.45;4.22;;;;;;;;;;5164760;27;20049;-71
2022/12/24 01:59:54;;;;;;;27.52;5.40;;;;;;;;;;5163979;27;20046;-70
2022/12/24 02:02:21;;;;;;;29.95;4.90;;;;;;;;;;5164327;27;20518;-70
2022/12/24 02:05:01;;;;;;;21.05;4.30;;;;;;;;;;5162152;27;20042;-70
2022/12/24 02:07:28;;;;;;;19.88;5.82;;;;;;;;;;5150761;27;20047;-70
2022/12/24 02:10:00;;;;;;;34.33;4.90;;;;;;;;;;5145361;27;20054;-70
2022/12/24 02:12:28;;;;;;;31.52;4.25;;;;;;;;;;5157751;27;20047;-70
2022/12/24 02:14:55;;;;;;;26.90;4.65;;;;;;;;;;5163413;27;20462;-70
2022/12/24 02:17:28;;;;;;;27.52;5.07;;;;;;;;;;5164004;27;20143;-71
2022/12/24 02:19:54;;;;;;;25.77;5.85;;;;;;;;;;5163685;27;20507;-71
2022/12/24 02:22:27;;;;;;;30.42;6.35;;;;;;;;;;5163084;27;20511;-71
2022/12/24 02:25:00;;;;;;;35.45;6.28;;;;;;;;;;5163946;27;20047;-71
2022/12/24 02:27:44;;;;;;;32.95;4.45;;;;;;;;;;5142034;27;20530;-71
2022/12/24 02:30:20;;;;;;;18.92;4.35;;;;;;;;;;5168209;27;20054;-71
2022/12/24 02:32:58;;;;;;;32.28;4.75;;;;;;;;;;5152052;27;20073;-71
2022/12/24 02:35:43;;;;;;;30.48;4.35;;;;;;;;;;5168145;27;20051;-70
2022/12/24 02:38:13;;;;;;;25.27;5.18;;;;;;;;;;5153683;27;20059;-71
2022/12/24 02:40:41;;;;;;;33.58;4.90;;;;;;;;;;5166289;27;21065;-71
2022/12/24 02:43:17;;;;;;;27.92;4.85;;;;;;;;;;5168130;27;20142;-69
2022/12/24 02:45:45;;;;;;;21.35;4.68;;;;;;;;;;5165388;27;20564;-71
2022/12/24 02:48:12;;;;;;;34.30;4.43;;;;;;;;;;5167187;27;20078;-70
2022/12/24 02:50:39;;;;;;;36.78;5.22;;;;;;;;;;5148427;27;20472;-70
2022/12/24 02:53:08;;;;;;;28.38;4.65;;;;;;;;;;5163267;27;20100;-71
2022/12/24 02:55:34;;;;;;;36.17;6.00;;;;;;;;;;5153078;27;20495;-71
2022/12/24 02:58:03;;;;;;;31.25;6.47;;;;;;;;;;5166683;27;20104;-71
2022/12/24 03:00:39;;;;;;;29.50;4.53;;;;;;;;;;5166285;27;20050;-70
2022/12/24 03:03:38;;;;;;;27.52;5.57;;;;;;;;;;5164484;27;20451;-70
2022/12/24 03:06:15;;;;;;;36.20;5.43;;;;;;;;;;5059977;28;20052;-70
2022/12/24 03:08:58;;;;;;;25.85;4.78;;;;;;;;;;5061927;28;20981;-70
2022/12/24 03:11:25;;;;;;;29.83;5.47;;;;;;;;;;5060577;28;20052;-71
2022/12/24 03:13:51;;;;;;;26.70;4.20;;;;;;;;;;5061928;28;20056;-71
2022/12/24 03:16:21;;;;;;;18.52;3.50;;;;;;;;;;5055498;28;20056;-70
2022/12/24 03:18:49;;;;;;;28.77;4.70;;;;;;;;;;5060087;28;20053;-70
2022/12/24 03:21:19;;;;;;;35.47;6.05;;;;;;;;;;5059789;28;20068;-70
2022/12/24 03:23:46;;;;;;;26.45;4.10;;;;;;;;;;5062426;28;20048;-70
2022/12/24 03:26:14;;;;;;;26.42;4.10;;;;;;;;;;5044259;28;20049;-70
2022/12/24 03:28:42;;;;;;;31.73;4.88;;;;;;;;;;5060910;28;20140;-70
2022/12/24 03:31:09;;;;;;;27.25;4.30;;;;;;;;;;5061799;28;20049;-71
2022/12/24 03:33:36;;;;;;;22.58;3.78;;;;;;;;;;5061014;28;20054;-70
2022/12/24 03:36:03;;;;;;;36.63;5.18;;;;;;;;;;5061337;28;20107;-70
2022/12/24 03:38:30;;;;;;;27.35;5.85;;;;;;;;;;5060671;28;20079;-70
2022/12/24 03:40:56;;;;;;;34.75;5.40;;;;;;;;;;5076521;27;20054;-70
2022/12/24 03:43:23;;;;;;;30.08;6.13;;;;;;;;;;5166671;27;20378;-70
2022/12/24 03:45:49;;;;;;;24.95;4.97;;;;;;;;;;5167521;27;20055;-70
2022/12/24 03:48:16;;;;;;;25.25;4.22;;;;;;;;;;5164422;27;20082;-69
2022/12/24 03:50:42;;;;;;;27.17;4.22;;;;;;;;;;5165736;27;20054;-69
2022/12/24 03:53:08;;;;;;;32.58;6.05;;;;;;;;;;5167031;27;20131;-70
2022/12/24 03:55:35;;;;;;;37.97;5.53;;;;;;;;;;5166535;27;20095;-71
2022/12/24 03:58:01;;;;;;;33.33;4.97;;;;;;;;;;5167041;27;20058;-70
2022/12/24 04:00:27;;;;;;;24.02;4.35;;;;;;;;;;5158210;27;20050;-71
2022/12/24 04:02:54;;;;;;;21.33;4.05;;;;;;;;;;5164478;27;20135;-70
2022/12/24 04:05:20;;;;;;;30.33;4.93;;;;;;;;;;5165037;27;20051;-70
2022/12/24 04:07:47;;;;;;;39.45;4.63;;;;;;;;;;5167956;27;20070;-70
2022/12/24 04:10:14;;;;;;;32.05;4.43;;;;;;;;;;5164987;27;20496;-69
2022/12/24 04:12:40;;;;;;;28.63;5.03;;;;;;;;;;5166521;27;20051;-70
2022/12/24 04:15:07;;;;;;;28.17;4.63;;;;;;;;;;5162478;27;20046;-70
2022/12/24 04:17:34;;;;;;;30.95;5.40;;;;;;;;;;5167066;27;20047;-70
2022/12/24 04:20:00;;;;;;;30.38;5.00;;;;;;;;;;5166287;27;20719;-70
2022/12/24 04:22:26;;;;;;;33.22;5.13;;;;;;;;;;5166621;27;20448;-70
2022/12/24 04:24:53;;;;;;;29.73;4.95;;;;;;;;;;5165580;27;20043;-70
2022/12/24 04:27:19;;;;;;;27.88;4.53;;;;;;;;;;5164875;27;20134;-70
2022/12/24 04:29:50;;;;;;;25.77;4.05;;;;;;;;;;5165103;27;20062;-71
2022/12/24 04:32:16;;;;;;;39.63;5.70;;;;;;;;;;5165672;27;20563;-70
2022/12/24 04:34:43;;;;;;;33.03;6.15;;;;;;;;;;5164426;27;20050;-70
2022/12/24 04:37:09;;;;;;;34.33;5.10;;;;;;;;;;5163925;27;21682;-70
2022/12/24 04:39:36;;;;;;;35.47;5.18;;;;;;;;;;5146680;27;20043;-70
2022/12/24 04:42:02;;;;;;;37.13;5.28;;;;;;;;;;5166098;27;20082;-69
2022/12/24 04:44:28;;;;;;;44.03;7.30;;;;;;;;;;5165173;27;20489;-70
2022/12/24 04:46:55;;;;;;;36.35;5.80;;;;;;;;;;5166152;27;20428;-69
2022/12/24 04:49:21;;;;;;;41.10;6.35;;;;;;;;;;5163513;27;20057;-69
2022/12/24 04:51:47;;;;;;;34.25;4.80;;;;;;;;;;5162524;27;20058;-69
2022/12/24 04:54:14;;;;;;;34.60;5.00;;;;;;;;;;5164352;27;20046;-70
2022/12/24 04:56:40;;;;;;;41.22;6.53;;;;;;;;;;5166689;27;20051;-69
2022/12/24 04:59:07;;;;;;;32.00;7.50;;;;;;;;;;5163379;27;20095;-70
2022/12/24 05:01:33;;;;;;;28.75;4.88;;;;;;;;;;5165097;27;20047;-69
2022/12/24 05:03:59;;;;;;;38.67;6.20;;;;;;;;;;5162763;27;20667;-69
2022/12/24 05:06:28;;;;;;;25.17;5.80;;;;;;;;;;5164387;27;20043;-69
2022/12/24 05:08:55;;;;;;;34.30;5.43;;;;;;;;;;5165024;27;20057;-70
2022/12/24 05:11:21;;;;;;;40.30;6.05;;;;;;;;;;5163814;27;20512;-70
2022/12/24 05:13:48;;;;;;;26.38;4.30;;;;;;;;;;5145039;27;20818;-70
2022/12/24 05:16:15;;;;;;;41.35;5.80;;;;;;;;;;5164352;27;20053;-70
2022/12/24 05:18:42;;;;;;;37.50;5.50;;;;;;;;;;5161757;27;20051;-70
2022/12/24 05:21:20;;;;;;;22.40;4.32;;;;;;;;;;5166051;27;20046;-71
2022/12/24 05:26:33;;;;;;;28.23;5.45;;;;;;;;;;5159291;27;20031;-70
2022/12/24 05:29:00;;;;;;;32.65;5.18;;;;;;;;;;5163665;27;20080;-70
2022/12/24 05:31:27;;;;;;;36.42;4.82;;;;;;;;;;5165436;27;20042;-70
2022/12/24 05:33:54;;;;;;;32.90;5.68;;;;;;;;;;5165073;27;20078;-71
2022/12/24 05:36:21;;;;;;;26.50;4.88;;;;;;;;;;5162613;27;20107;-71
2022/12/24 05:38:47;;;;;;;25.33;5.15;;;;;;;;;;5154399;27;20047;-71
2022/12/24 05:41:14;;;;;;;37.72;5.57;;;;;;;;;;5163933;27;20698;-70
2022/12/24 05:43:40;;;;;;;30.55;4.25;;;;;;;;;;5164364;27;20054;-70
2022/12/24 05:46:08;;;;;;;33.90;4.93;;;;;;;;;;5161688;27;20138;-70
2022/12/24 05:48:34;;;;;;;31.80;4.15;;;;;;;;;;5163886;27;20104;-71
2022/12/24 05:51:05;;;;;;;43.83;6.80;;;;;;;;;;5165453;27;20051;-70
2022/12/24 05:53:32;;;;;;;31.95;5.53;;;;;;;;;;5165636;27;20049;-70
2022/12/24 05:56:01;;;;;;;28.08;4.43;;;;;;;;;;5163410;27;20059;-70
2022/12/24 05:58:28;;;;;;;34.47;6.03;;;;;;;;;;5144736;27;20826;-70
2022/12/24 06:00:54;;;;;;;38.42;5.90;;;;;;;;;;5161258;27;20622;-71
2022/12/24 06:03:20;;;;;;;25.08;4.40;;;;;;;;;;5167949;27;20046;-71
2022/12/24 06:05:46;;;;;;;27.25;4.65;;;;;;;;;;5165105;27;20042;-70
2022/12/24 06:08:13;;;;;;;26.58;6.82;;;;;;;;;;5141836;27;20402;-70
2022/12/24 06:10:39;;;;;;;31.88;4.38;;;;;;;;;;5166296;27;20525;-70
2022/12/24 06:13:06;;;;;;;20.13;4.68;;;;;;;;;;5166118;27;20504;-70
2022/12/24 06:15:34;;;;;;;29.50;4.47;;;;;;;;;;5165137;27;20506;-70
2022/12/24 06:18:00;;;;;;;29.98;5.40;;;;;;;;;;5168260;27;20055;-71
2022/12/24 06:20:27;;;;;;;36.05;5.15;;;;;;;;;;5167556;27;20087;-70
2022/12/24 06:22:53;;;;;;;28.27;4.25;;;;;;;;;;5167242;27;20192;-71
2022/12/24 06:25:19;;;;;;;32.38;5.88;;;;;;;;;;5155902;27;20046;-71
2022/12/24 06:27:46;;;;;;;30.05;5.22;;;;;;;;;;5163672;27;20046;-71
2022/12/24 06:30:12;;;;;;;41.42;5.25;;;;;;;;;;5165011;27;20053;-70
2022/12/24 06:32:39;;;;;;;34.80;5.63;;;;;;;;;;5163650;27;20042;-71
2022/12/24 06:35:06;;;;;;;33.70;6.32;;;;;;;;;;5166166;27;20520;-70
2022/12/24 06:37:32;;;;;;;34.08;5.95;;;;;;;;;;5168660;27;20046;-71
2022/12/24 06:39:58;;;;;;;27.17;4.93;;;;;;;;;;5164184;27;20039;-70
2022/12/24 06:42:25;;;;;;;38.35;5.78;;;;;;;;;;5164004;27;20610;-70
2022/12/24 06:44:51;;;;;;;27.33;4.65;;;;;;;;;;5165797;27;20042;-70
2022/12/24 06:47:19;;;;;;;30.42;4.93;;;;;;;;;;5148486;27;20047;-70
2022/12/24 06:49:45;;;;;;;49.75;7.68;;;;;;;;;;5165783;27;20050;-71
2022/12/24 06:52:11;;;;;;;41.00;6.72;;;;;;;;;;5166187;27;20051;-71
2022/12/24 06:54:38;;;;;;;42.78;5.65;;;;;;;;;;5162720;27;20101;-71
2022/12/24 06:57:05;;;;;;;47.80;6.47;;;;;;;;;;5165528;27;20042;-69
2022/12/24 06:59:32;;;;;;;32.92;5.97;;;;;;;;;;5166389;27;20046;-70
2022/12/24 07:01:58;;;;;;;39.67;5.97;;;;;;;;;;5168330;27;20158;-70
2022/12/24 07:04:25;;;;;;;50.47;7.22;;;;;;;;;;5162836;27;20057;-70
2022/12/24 07:06:51;;;;;;;36.25;5.97;;;;;;;;;;5162431;27;20436;-70
2022/12/24 07:09:17;;;;;;;45.30;6.65;;;;;;;;;;5164887;27;20123;-70
2022/12/24 07:11:44;;;;;;;48.30;6.63;;;;;;;;;;5165215;27;20047;-69
2022/12/24 07:14:10;;;;;;;39.25;6.07;;;;;;;;;;5165954;27;20168;-69
2022/12/24 07:16:37;;;;;;;35.35;6.00;;;;;;;;;;5164277;27;20047;-70
2022/12/24 07:19:03;;;;;;;37.65;5.00;;;;;;;;;;5164010;27;20062;-68
2022/12/24 07:21:30;;;;;;;44.50;6.05;;;;;;;;;;5165446;27;20442;-70
2022/12/24 07:23:56;;;;;;;54.58;6.75;;;;;;;;;;5159738;27;20559;-70
2022/12/24 07:26:22;;;;;;;35.70;5.60;;;;;;;;;;5148076;27;20134;-70
2022/12/24 07:28:48;;;;;;;32.25;5.75;;;;;;;;;;5167142;27;20103;-70
2022/12/24 07:31:15;;;;;;;44.42;6.18;;;;;;;;;;5167706;27;20391;-69
2022/12/24 07:33:41;;;;;;;49.15;7.22;;;;;;;;;;5162972;27;20078;-69
2022/12/24 07:36:09;;;;;;;40.88;5.82;;;;;;;;;;5164217;27;20852;-70
2022/12/24 07:38:36;;;;;;;48.60;7.32;;;;;;;;;;5164615;27;20288;-71
2022/12/24 07:41:02;;;;;;;50.28;6.50;;;;;;;;;;5163788;27;20057;-71
2022/12/24 07:43:31;;;;;;;48.40;6.72;;;;;;;;;;5166823;27;20596;-71
2022/12/24 07:45:57;;;;;;;38.15;7.20;;;;;;;;;;5166216;27;20046;-71
2022/12/24 07:48:25;;;;;;;54.90;8.43;;;;;;;;;;5165756;27;20047;-71
2022/12/24 07:50:51;;;;;;;44.65;7.38;;;;;;;;;;5167599;27;20496;-71
2022/12/24 07:53:18;;;;;;;44.38;7.95;;;;;;;;;;5166099;27;20145;-72
2022/12/24 07:55:44;;;;;;;41.38;6.45;;;;;;;;;;5165508;27;20046;-71
2022/12/24 07:58:11;;;;;;;44.45;9.27;;;;;;;;;;5146645;27;20047;-69
2022/12/24 08:00:37;;;;;;;46.05;7.10;;;;;;;;;;5167184;27;20510;-72
2022/12/24 08:03:04;;;;;;;40.70;6.53;;;;;;;;;;5166024;27;20131;-72
2022/12/24 08:05:36;;;;;;;33.72;5.57;;;;;;;;;;5164769;27;20218;-71
2022/12/24 08:08:03;;;;;;;34.25;5.90;;;;;;;;;;5164141;27;20055;-71
2022/12/24 08:10:29;;;;;;;41.08;7.45;;;;;;;;;;5164805;27;20081;-71
2022/12/24 08:12:55;;;;;;;48.47;7.93;;;;;;;;;;5161813;27;20047;-70
2022/12/24 08:15:22;;;;;;;38.78;7.15;;;;;;;;;;5167346;27;20054;-70
2022/12/24 08:17:48;;;;;;;39.88;6.20;;;;;;;;;;5166673;27;20047;-70
2022/12/24 08:20:16;;;;;;;38.03;6.07;;;;;;;;;;5161632;27;20566;-71
2022/12/24 08:22:42;;;;;;;30.38;4.75;;;;;;;;;;5164936;27;20640;-70
2022/12/24 08:25:09;;;;;;;37.78;6.57;;;;;;;;;;5152799;27;20505;-70
2022/12/24 08:27:36;;;;;;;39.05;6.55;;;;;;;;;;5147362;27;20052;-70
2022/12/24 08:30:03;;;;;;;33.60;6.18;;;;;;;;;;5154186;27;20048;-71
2022/12/24 08:32:29;;;;;;;26.67;5.32;;;;;;;;;;5162946;27;20055;-70
2022/12/24 08:34:55;;;;;;;43.53;7.57;;;;;;;;;;5151438;27;20495;-71
2022/12/24 08:37:23;;;;;;;48.00;7.63;;;;;;;;;;5162457;27;20053;-70
2022/12/24 08:39:49;;;;;;;45.85;7.25;;;;;;;;;;5165569;27;20461;-70
2022/12/24 08:42:15;;;;;;;38.72;5.55;;;;;;;;;;5148102;27;20051;-71
2022/12/24 08:44:42;;;;;;;44.83;6.60;;;;;;;;;;5166618;27;20053;-70
2022/12/24 08:47:08;;;;;;;48.78;5.90;;;;;;;;;;5164860;27;20129;-71
2022/12/24 08:49:35;;;;;;;42.03;6.63;;;;;;;;;;5162319;27;20134;-70
2022/12/24 08:52:02;;;;;;;41.80;7.93;;;;;;;;;;5159598;27;20050;-71
2022/12/24 08:54:28;;;;;;;46.47;6.78;;;;;;;;;;5159321;27;20050;-71
2022/12/24 08:56:55;;;;;;;36.47;6.97;;;;;;;;;;5156562;27;20046;-70
2022/12/24 08:59:21;;;;;;;36.25;5.72;;;;;;;;;;5156494;27;20051;-70
2022/12/24 09:01:47;;;;;;;37.22;6.55;;;;;;;;;;5161820;27;20981;-71
2022/12/24 09:04:14;;;;;;;34.88;5.57;;;;;;;;;;5162615;27;20244;-70
2022/12/24 09:06:41;;;;;;;42.10;7.25;;;;;;;;;;5163851;27;20057;-70
2022/12/24 09:09:07;;;;;;;37.83;6.45;;;;;;;;;;5164508;27;20050;-70
2022/12/24 09:11:34;;;;;;;42.05;6.28;;;;;;;;;;5165892;27;20058;-70
2022/12/24 09:14:00;;;;;;;38.13;5.38;;;;;;;;;;5164973;27;20057;-70
2022/12/24 09:16:27;;;;;;;37.88;6.25;;;;;;;;;;5165791;27;20577;-70
2022/12/24 09:18:55;;;;;;;36.50;5.97;;;;;;;;;;5146037;27;20460;-70
2022/12/24 09:21:21;;;;;;;37.90;5.43;;;;;;;;;;5164429;27;20051;-70
2022/12/24 09:23:47;;;;;;;29.27;6.50;;;;;;;;;;5165228;27;20635;-71
2022/12/24 09:26:16;;;;;;;41.75;7.13;;;;;;;;;;5164733;27;20050;-70
2022/12/24 09:28:42;;;;;;;45.00;5.43;;;;;;;;;;5143617;27;20051;-71
2022/12/24 09:31:09;;;;;;;28.95;5.60;;;;;;;;;;5165646;27;20042;-70
2022/12/24 09:33:37;;;;;;;45.42;7.53;;;;;;;;;;5162426;27;20050;-71
2022/12/24 09:36:04;;;;;;;47.20;5.85;;;;;;;;;;5164668;27;20047;-70
2022/12/24 09:38:31;;;;;;;32.40;6.00;;;;;;;;;;5164817;27;20630;-69
2022/12/24 09:40:57;;;;;;;45.85;6.30;;;;;;;;;;5167040;27;20043;-72
2022/12/24 09:43:32;;;;;;;37.65;6.00;;;;;;;;;;5163322;27;20030;-70
2022/12/24 09:46:08;;;;;;;33.03;5.70;;;;;;;;;;5156930;27;20081;-70
2022/12/24 09:48:37;;;;;;;29.95;5.95;;;;;;;;;;5155163;27;20047;-71
2022/12/24 09:51:04;;;;;;;36.55;6.18;;;;;;;;;;5155919;27;20566;-71
2022/12/24 09:54:03;;;;;;;34.63;5.78;;;;;;;;;;5160063;27;20068;-70
2022/12/24 09:56:37;;;;;;;50.03;13.80;;;;;;;;;;5112092;27;20043;-71
2022/12/24 09:59:05;;;;;;;30.98;5.53;;;;;;;;;;5161176;27;20055;-70
2022/12/24 10:01:33;;;;;;;35.97;5.22;;;;;;;;;;5163071;27;20068;-70
2022/12/24 10:04:12;;;;;;;37.88;6.40;;;;;;;;;;5162845;27;20058;-71
2022/12/24 10:06:41;;;;;;;29.92;5.45;;;;;;;;;;5165867;27;20055;-70
2022/12/24 10:09:15;;;;;;;41.67;7.45;;;;;;;;;;5165389;27;20562;-70
2022/12/24 10:11:48;;;;;;;34.08;5.40;;;;;;;;;;5163405;27;20047;-70
2022/12/24 10:14:33;;;;;;;29.40;4.32;;;;;;;;;;5164014;27;20139;-71
2022/12/24 10:17:16;;;;;;;31.67;6.50;;;;;;;;;;5165267;27;20104;-70
2022/12/24 10:20:03;;;;;;;27.42;5.53;;;;;;;;;;5165319;27;20058;-70
2022/12/24 10:22:33;;;;;;;29.58;5.18;;;;;;;;;;5147466;27;20055;-70
2022/12/24 10:25:13;;;;;;;33.42;5.30;;;;;;;;;;5165254;27;20130;-70
2022/12/24 10:27:40;;;;;;;37.58;4.75;;;;;;;;;;5164803;27;20146;-71
2022/12/24 10:30:17;;;;;;;31.85;5.22;;;;;;;;;;5164484;27;20670;-70
2022/12/24 10:32:45;;;;;;;33.25;4.65;;;;;;;;;;5146433;27;20053;-70
2022/12/24 10:35:15;;;;;;;31.60;5.38;;;;;;;;;;5165309;27;20489;-71
2022/12/24 10:37:42;;;;;;;36.60;5.30;;;;;;;;;;5161728;27;20159;-70
2022/12/24 10:40:22;;;;;;;22.80;5.13;;;;;;;;;;5165292;27;20130;-71
2022/12/24 10:42:48;;;;;;;22.45;4.50;;;;;;;;;;5164199;27;20156;-71
2022/12/24 10:45:19;;;;;;;33.60;5.75;;;;;;;;;;5164153;27;21012;-71
2022/12/24 10:47:48;;;;;;;45.53;7.28;;;;;;;;;;5142235;27;20138;-71
2022/12/24 10:50:29;;;;;;;36.05;6.05;;;;;;;;;;5166666;27;20054;-70
2022/12/24 10:53:05;;;;;;;28.75;5.53;;;;;;;;;;5166819;27;20525;-70
2022/12/24 10:55:32;;;;;;;21.27;4.35;;;;;;;;;;5165676;27;20042;-71
2022/12/24 10:58:03;;;;;;;32.33;5.50;;;;;;;;;;5168710;27;20207;-69
2022/12/24 11:00:30;;;;;;;27.35;4.97;;;;;;;;;;5167312;27;20050;-71
2022/12/24 11:03:20;;;;;;;32.00;5.05;;;;;;;;;;5167326;27;20145;-71
2022/12/24 11:05:58;;;;;;;32.17;5.70;;;;;;;;;;5165175;27;20047;-71
2022/12/24 11:08:25;;;;;;;23.95;4.68;;;;;;;;;;5153703;27;20607;-71
2022/12/24 11:11:02;;;;;;;26.63;4.25;;;;;;;;;;5165363;27;20047;-71
2022/12/24 11:13:28;;;;;;;30.95;4.90;;;;;;;;;;5167493;27;20042;-72
2022/12/24 11:16:22;;;;;;;29.27;5.60;;;;;;;;;;5167219;27;20061;-70
2022/12/24 11:18:50;;;;;;;21.92;4.25;;;;;;;;;;5166644;27;20554;-70
2022/12/24 11:21:38;;;;;;;33.33;5.70;;;;;;;;;;5165236;27;20125;-70
2022/12/24 11:24:16;;;;;;;25.75;4.60;;;;;;;;;;5165576;27;20047;-70
2022/12/24 11:26:43;;;;;;;25.05;4.32;;;;;;;;;;5167617;27;20520;-70
2022/12/24 11:29:13;;;;;;;25.40;4.85;;;;;;;;;;5167408;27;20557;-70
2022/12/24 11:31:40;;;;;;;26.65;4.88;;;;;;;;;;5167715;27;20086;-70
2022/12/24 11:34:22;;;;;;;25.13;4.70;;;;;;;;;;5167237;27;20081;-71
2022/12/24 11:36:52;;;;;;;24.92;4.72;;;;;;;;;;5167631;27;20138;-71
2022/12/24 11:39:22;;;;;;;29.35;6.00;;;;;;;;;;5166810;27;20046;-70
2022/12/24 11:41:49;;;;;;;24.20;4.63;;;;;;;;;;5167853;27;20126;-70
2022/12/24 11:44:22;;;;;;;22.63;5.38;;;;;;;;;;5166950;27;20051;-69
2022/12/24 11:46:51;;;;;;;20.45;4.03;;;;;;;;;;5167994;27;20494;-70
2022/12/24 11:49:22;;;;;;;21.63;4.10;;;;;;;;;;5167510;27;20138;-69
2022/12/24 11:52:08;;;;;;;17.42;3.85;;;;;;;;;;5166130;27;20058;-70
2022/12/24 11:54:40;;;;;;;21.60;5.03;;;;;;;;;;5166485;27;20741;-70
2022/12/24 11:57:07;;;;;;;25.15;3.45;;;;;;;;;;5165537;27;20100;-69
2022/12/24 11:59:36;;;;;;;23.67;5.15;;;;;;;;;;5165793;27;20039;-69
2022/12/24 12:02:17;;;;;;;13.98;3.22;;;;;;;;;;5161385;27;20047;-69
2022/12/24 12:04:45;;;;;;;25.38;4.80;;;;;;;;;;5165001;27;20572;-69
2022/12/24 12:07:21;;;;;;;22.90;4.03;;;;;;;;;;5166228;27;20051;-68
2022/12/24 12:09:53;;;;;;;18.73;3.20;;;;;;;;;;5164849;27;20539;-69
2022/12/24 12:12:21;;;;;;;23.30;4.05;;;;;;;;;;5166551;27;20135;-69
2022/12/24 12:14:47;;;;;;;27.50;4.47;;;;;;;;;;5166762;27;20039;-69
2022/12/24 12:17:33;;;;;;;18.58;3.95;;;;;;;;;;5165987;27;20055;-69
2022/12/24 12:20:12;;;;;;;23.40;4.23;;;;;;;;;;5166477;27;20051;-69
2022/12/24 12:22:47;;;;;;;28.00;4.63;;;;;;;;;;5161533;27;20341;-68
2022/12/24 12:25:36;;;;;;;26.75;4.80;;;;;;;;;;5160118;27;20487;-68
2022/12/24 12:28:06;;;;;;;22.48;3.33;;;;;;;;;;5159304;27;20531;-70
2022/12/24 12:30:34;;;;;;;16.58;3.22;;;;;;;;;;5163724;27;20578;-68
2022/12/24 12:33:10;;;;;;;17.48;3.38;;;;;;;;;;5164509;27;20054;-68
2022/12/24 12:35:38;;;;;;;15.73;3.13;;;;;;;;;;5166789;27;20065;-67
2022/12/24 12:38:06;;;;;;;19.63;3.50;;;;;;;;;;5163454;27;20043;-67
2022/12/24 12:40:49;;;;;;;13.50;2.75;;;;;;;;;;5161984;27;20050;-67
2022/12/24 12:43:27;;;;;;;23.45;3.30;;;;;;;;;;5145080;27;20524;-67
2022/12/24 12:46:12;;;;;;;19.38;3.75;;;;;;;;;;5165207;27;20058;-68
2022/12/24 12:48:43;;;;;;;21.20;3.83;;;;;;;;;;5160947;27;20062;-67
2022/12/24 12:51:33;;;;;;;21.35;4.07;;;;;;;;;;5164560;27;20154;-67
2022/12/24 12:54:20;;;;;;;14.25;3.10;;;;;;;;;;5145830;27;20089;-67
2022/12/24 12:56:48;;;;;;;21.55;4.57;;;;;;;;;;5150234;27;20866;-67
2022/12/24 12:59:23;;;;;;;22.13;4.78;;;;;;;;;;5158842;27;20504;-67
2022/12/24 13:01:57;;;;;;;18.77;4.95;;;;;;;;;;5163484;27;20490;-67
2022/12/24 13:04:42;;;;;;;18.00;3.45;;;;;;;;;;5165246;27;20121;-67
2022/12/24 13:07:12;;;;;;;19.42;3.80;;;;;;;;;;5160821;27;20585;-66
2022/12/24 13:09:51;;;;;;;26.25;3.50;;;;;;;;;;5161354;27;20058;-67
2022/12/24 13:12:23;;;;;;;16.05;3.45;;;;;;;;;;5160693;27;20046;-67
2022/12/24 13:14:55;;;;;;;17.38;4.03;;;;;;;;;;5164390;27;20550;-67
2022/12/24 13:17:39;;;;;;;19.73;3.42;;;;;;;;;;5159923;27;20051;-67
2022/12/24 13:20:17;;;;;;;23.00;3.90;;;;;;;;;;5161520;27;20042;-67
2022/12/24 13:22:56;;;;;;;17.33;3.92;;;;;;;;;;5164452;27;20510;-67
2022/12/24 13:25:25;;;;;;;16.88;3.10;;;;;;;;;;5161984;27;20054;-67
2022/12/24 13:27:52;;;;;;;17.65;2.90;;;;;;;;;;5163550;27;20054;-67
2022/12/24 13:30:32;;;;;;;18.02;3.72;;;;;;;;;;5165932;27;20043;-66
2022/12/24 13:32:59;;;;;;;24.08;3.97;;;;;;;;;;5159452;27;20053;-67
2022/12/24 13:35:27;;;;;;;17.25;2.83;;;;;;;;;;5163937;27;20047;-67
2022/12/24 13:38:21;;;;;;;24.65;4.97;;;;;;;;;;5164956;27;20168;-67
2022/12/24 13:40:47;;;;;;;26.70;3.53;;;;;;;;;;5159656;27;20047;-67
2022/12/24 13:43:14;;;;;;;18.63;3.42;;;;;;;;;;5162880;27;20376;-67
2022/12/24 13:45:42;;;;;;;17.60;3.22;;;;;;;;;;5163328;27;20506;-66
2022/12/24 13:48:09;;;;;;;20.95;3.42;;;;;;;;;;5163711;27;20526;-66
2022/12/24 13:50:37;;;;;;;26.65;4.03;;;;;;;;;;5165028;27;20134;-67
2022/12/24 13:53:24;;;;;;;20.48;4.00;;;;;;;;;;5165232;27;20043;-67
2022/12/24 13:56:11;;;;;;;19.13;4.03;;;;;;;;;;5147037;27;20042;-67
2022/12/24 13:58:42;;;;;;;21.88;3.80;;;;;;;;;;5144096;27;20057;-67
2022/12/24 14:01:10;;;;;;;19.65;4.55;;;;;;;;;;5165685;27;20053;-67
2022/12/24 14:03:46;;;;;;;21.80;3.47;;;;;;;;;;5164289;27;20074;-67
2022/12/24 14:06:21;;;;;;;13.63;2.53;;;;;;;;;;5161976;27;20596;-67
2022/12/24 14:08:48;;;;;;;;;;;;;;;;;;5165477;27;20570;-66
2022/12/24 14:11:16;;;;;;;15.57;3.28;;;;;;;;;;5160062;27;45204;-67
2022/12/24 14:13:45;;;;;;;22.10;3.72;;;;;;;;;;5163931;27;20043;-67
2022/12/24 14:16:22;;;;;;;18.95;3.63;;;;;;;;;;5156701;27;20138;-67
2022/12/24 14:18:56;;;;;;;23.58;3.47;;;;;;;;;;5152043;27;20695;-67
2022/12/24 14:21:27;;;;;;;17.52;2.53;;;;;;;;;;5163316;27;20049;-67
2022/12/24 14:24:11;;;;;;;17.77;3.25;;;;;;;;;;5166167;27;20202;-68
2022/12/24 14:26:44;;;;;;;23.53;3.87;;;;;;;;;;5168473;27;20091;-68
2022/12/24 14:29:33;;;;;;;18.05;3.30;;;;;;;;;;5168223;27;20107;-68
2022/12/24 14:32:03;;;;;;;16.77;2.88;;;;;;;;;;5152199;27;20097;-68
2022/12/24 14:34:30;;;;;;;14.15;3.95;;;;;;;;;;5165810;27;20051;-69
2022/12/24 14:36:58;;;;;;;14.57;3.25;;;;;;;;;;5166516;27;20137;-67
2022/12/24 14:39:25;;;;;;;14.32;3.40;;;;;;;;;;5163900;27;20146;-67
2022/12/24 14:42:10;;;;;;;22.02;5.00;;;;;;;;;;5161323;27;20130;-68
2022/12/24 14:44:40;;;;;;;18.23;3.72;;;;;;;;;;5165617;27;20057;-67
2022/12/24 14:47:18;;;;;;;23.10;4.05;;;;;;;;;;5164648;27;20473;-67
2022/12/24 14:49:45;;;;;;;17.05;3.22;;;;;;;;;;5158534;27;20039;-67
2022/12/24 14:52:23;;;;;;;17.45;3.97;;;;;;;;;;5159654;27;20055;-68